createdAt,value
2018-06-29T00:01:15.708Z,3.77
2018-06-29T00:03:57.844Z,3.80
2018-06-29T00:06:26.590Z,3.50
2018-06-29T00:09:07.686Z,3.67
2018-06-29T00:11:52.457Z,4.17
2018-06-29T00:14:22.199Z,4.60
2018-06-29T00:16:52.957Z,4.33
2018-06-29T00:19:21.983Z,4.47
2018-06-29T00:21:52.584Z,4.67
2018-06-29T00:24:32.602Z,4.90
2018-06-29T00:27:13.598Z,4.60
2018-06-29T00:29:44.083Z,4.40
2018-06-29T00:32:12.851Z,4.10
2018-06-29T00:34:41.350Z,3.80
2018-06-29T00:37:11.141Z,3.90
2018-06-29T00:39:42.228Z,3.90
2018-06-29T00:42:14.986Z,4.10
2018-06-29T00:44:49.056Z,4.50
2018-06-29T00:47:27.701Z,4.60
2018-06-29T00:50:03.110Z,4.77
2018-06-29T00:52:39.821Z,5.10
2018-06-29T00:55:12.762Z,4.47
2018-06-29T00:57:53.320Z,4.43
2018-06-29T01:00:26.979Z,4.33
2018-06-29T01:02:56.623Z,4.47
2018-06-29T01:05:30.506Z,4.70
2018-06-29T01:07:59.740Z,4.83
2018-06-29T01:10:28.534Z,4.67
2018-06-29T01:12:58.126Z,5.10
2018-06-29T01:15:27.569Z,5.50
2018-06-29T01:17:57.345Z,5.33
2018-06-29T01:20:31.599Z,5.30
2018-06-29T01:23:00.297Z,5.37
2018-06-29T01:25:30.844Z,5.10
2018-06-29T01:28:01.606Z,5.20
2018-06-29T01:30:52.378Z,5.30
2018-06-29T01:33:30.576Z,5.77
2018-06-29T01:36:03.043Z,6.00
2018-06-29T01:38:33.006Z,5.53
2018-06-29T01:41:03.808Z,5.73
2018-06-29T01:43:37.975Z,5.67
2018-06-29T01:46:16.195Z,6.00
2018-06-29T01:49:01.396Z,5.90
2018-06-29T01:51:33.638Z,6.33
2018-06-29T01:54:02.143Z,6.10
2018-06-29T01:56:30.918Z,6.17
2018-06-29T01:58:59.670Z,6.10
2018-06-29T02:01:28.421Z,6.27
2018-06-29T02:03:57.859Z,6.07
2018-06-29T02:06:26.604Z,6.30
2018-06-29T02:08:55.370Z,6.00
2018-06-29T02:11:27.317Z,6.40
2018-06-29T02:13:56.999Z,6.80
2018-06-29T02:16:25.630Z,6.83
2018-06-29T02:18:55.297Z,7.03
2018-06-29T02:21:23.895Z,6.77
2018-06-29T02:23:54.529Z,6.30
2018-06-29T02:26:29.028Z,6.60
2018-06-29T02:29:02.018Z,6.27
2018-06-29T02:31:38.947Z,6.40
2018-06-29T02:34:08.401Z,6.20
2018-06-29T02:36:46.786Z,6.53
2018-06-29T02:39:17.314Z,6.70
2018-06-29T02:41:46.353Z,6.70
2018-06-29T02:44:17.118Z,6.77
2018-06-29T02:46:59.290Z,6.77
2018-06-29T02:49:29.848Z,7.30
2018-06-29T02:52:01.534Z,7.07
2018-06-29T02:54:39.908Z,6.70
2018-06-29T02:57:08.506Z,6.80
2018-06-29T02:59:39.104Z,7.30
2018-06-29T03:02:08.745Z,7.00
2018-06-29T03:04:49.312Z,6.87
2018-06-29T03:07:25.974Z,7.77
2018-06-29T03:09:56.557Z,7.43
2018-06-29T03:12:28.326Z,7.50
2018-06-29T03:15:14.735Z,7.33
2018-06-29T03:17:43.481Z,7.53
2018-06-29T03:20:18.866Z,7.63
2018-06-29T03:22:49.477Z,7.00
2018-06-29T03:25:17.671Z,6.33
2018-06-29T03:27:58.202Z,7.07
2018-06-29T03:30:37.882Z,6.97
2018-06-29T03:33:11.587Z,6.90
2018-06-29T03:35:44.533Z,6.90
2018-06-29T03:41:07.088Z,7.00
2018-06-29T03:43:35.839Z,6.60
2018-06-29T03:46:04.546Z,6.77
2018-06-29T03:48:33.202Z,6.20
2018-06-29T03:51:01.812Z,6.63
2018-06-29T03:53:31.479Z,6.67
2018-06-29T03:56:00.287Z,6.70
2018-06-29T04:01:26.997Z,6.70
2018-06-29T04:03:59.061Z,7.03
2018-06-29T04:06:31.180Z,7.13
2018-06-29T04:09:11.455Z,7.03
2018-06-29T04:11:41.275Z,7.17
2018-06-29T04:14:13.271Z,7.10
2018-06-29T04:16:41.967Z,7.00
2018-06-29T04:19:22.557Z,7.33
2018-06-29T04:21:58.679Z,6.70
2018-06-29T04:24:27.319Z,7.50
2018-06-29T04:26:57.863Z,7.00
2018-06-29T04:29:38.979Z,6.80
2018-06-29T04:32:15.112Z,7.33
2018-06-29T04:34:57.304Z,7.33
2018-06-29T04:37:39.832Z,7.20
2018-06-29T04:40:13.747Z,7.57
2018-06-29T04:42:47.976Z,7.07
2018-06-29T04:45:30.091Z,8.20
2018-06-29T04:48:03.805Z,7.63
2018-06-29T04:50:33.165Z,7.10
2018-06-29T04:56:06.325Z,7.67
2018-06-29T04:58:54.097Z,7.73
2018-06-29T05:04:17.109Z,8.30
2018-06-29T05:06:46.027Z,8.03
2018-06-29T05:09:16.439Z,8.47
2018-06-29T05:11:46.422Z,8.20
2018-06-29T05:14:16.141Z,8.70
2018-06-29T05:16:44.891Z,9.00
2018-06-29T05:19:13.439Z,9.10
2018-06-29T05:21:49.751Z,8.87
2018-06-29T05:24:20.341Z,8.60
2018-06-29T05:26:49.905Z,9.27
2018-06-29T05:29:23.511Z,9.50
2018-06-29T05:31:53.143Z,9.43
2018-06-29T05:34:28.375Z,9.77
2018-06-29T05:36:57.875Z,10.50
2018-06-29T05:39:31.609Z,10.07
2018-06-29T05:42:05.883Z,9.87
2018-06-29T05:44:40.006Z,9.57
2018-06-29T05:47:12.914Z,9.90
2018-06-29T05:49:44.665Z,9.93
2018-06-29T05:52:16.529Z,10.50
2018-06-29T05:54:47.323Z,9.87
2018-06-29T05:57:17.800Z,9.90
2018-06-29T05:59:58.421Z,9.57
2018-06-29T06:02:33.885Z,9.57
2018-06-29T06:05:22.580Z,8.70
2018-06-29T06:07:54.322Z,8.87
2018-06-29T06:10:26.066Z,9.30
2018-06-29T06:12:59.057Z,10.27
2018-06-29T06:15:28.669Z,8.90
2018-06-29T06:18:02.888Z,10.30
2018-06-29T06:20:32.549Z,9.07
2018-06-29T06:23:17.158Z,9.30
2018-06-29T06:25:49.566Z,9.63
2018-06-29T06:28:20.144Z,9.47
2018-06-29T06:30:52.438Z,9.07
2018-06-29T06:33:24.222Z,9.23
2018-06-29T06:36:04.243Z,8.47
2018-06-29T06:38:33.885Z,8.93
2018-06-29T06:41:08.120Z,8.80
2018-06-29T06:43:44.746Z,9.20
2018-06-29T06:46:15.350Z,8.93
2018-06-29T06:48:54.122Z,9.23
2018-06-29T06:51:24.782Z,9.10
2018-06-29T06:53:58.838Z,9.00
2018-06-29T06:56:46.315Z,8.77
2018-06-29T06:59:14.956Z,9.07
2018-06-29T07:01:43.620Z,8.10
2018-06-29T07:07:17.238Z,8.30
2018-06-29T07:12:38.604Z,7.87
2018-06-29T07:15:11.330Z,8.57
2018-06-29T07:17:40.993Z,7.37
2018-06-29T07:20:22.454Z,7.60
2018-06-29T07:22:55.168Z,7.83
2018-06-29T07:25:23.900Z,7.63
2018-06-29T07:27:52.510Z,8.20
2018-06-29T07:30:25.828Z,8.17
2018-06-29T07:32:54.498Z,7.87
2018-06-29T07:38:26.308Z,8.07
2018-06-29T07:44:07.292Z,8.63
2018-06-29T07:46:49.505Z,8.37
2018-06-29T07:49:37.228Z,7.80
2018-06-29T07:52:06.001Z,7.80
2018-06-29T07:54:38.351Z,7.97
2018-06-29T07:57:16.901Z,7.40
2018-06-29T07:59:46.394Z,8.23
2018-06-29T08:02:18.860Z,7.57
2018-06-29T08:04:47.489Z,7.40
2018-06-29T08:07:30.577Z,7.10
2018-06-29T08:13:04.831Z,7.30
2018-06-29T08:15:33.744Z,7.47
2018-06-29T08:18:06.820Z,8.03
2018-06-29T08:20:36.445Z,7.90
2018-06-29T08:23:12.140Z,7.77
2018-06-29T08:25:51.026Z,7.83
2018-06-29T08:28:25.510Z,7.20
2018-06-29T08:31:07.825Z,7.20
2018-06-29T08:33:37.189Z,7.20
2018-06-29T08:36:08.265Z,7.07
2018-06-29T08:38:37.576Z,7.37
2018-06-29T08:41:12.991Z,7.87
2018-06-29T08:43:43.522Z,7.60
2018-06-29T08:46:15.934Z,7.30
2018-06-29T08:49:02.673Z,8.17
2018-06-29T08:54:40.579Z,6.80
2018-06-29T08:57:20.921Z,9.30
2018-06-29T08:59:49.339Z,9.60
2018-06-29T09:02:19.860Z,8.33
2018-06-29T09:04:55.308Z,6.80
2018-06-29T09:07:31.944Z,5.40
2018-06-29T09:10:07.405Z,6.40
2018-06-29T09:12:35.837Z,6.70
2018-06-29T09:15:23.529Z,6.37
2018-06-29T09:18:03.599Z,6.03
2018-06-29T09:20:37.295Z,5.90
2018-06-29T09:23:06.745Z,6.00
2018-06-29T09:25:51.748Z,6.87
2018-06-29T09:28:39.530Z,6.57
2018-06-29T09:31:26.001Z,6.00
2018-06-29T09:34:11.591Z,5.57
2018-06-29T09:36:44.634Z,5.90
2018-06-29T09:39:13.977Z,6.97
2018-06-29T09:41:43.087Z,5.87
2018-06-29T09:44:12.450Z,5.13
2018-06-29T09:46:43.028Z,5.30
2018-06-29T09:52:24.626Z,5.63
2018-06-29T09:57:55.796Z,5.90
2018-06-29T10:00:36.777Z,5.70
2018-06-29T10:03:25.739Z,5.30
2018-06-29T10:06:00.553Z,5.23
2018-06-29T10:08:28.927Z,4.50
2018-06-29T10:11:01.083Z,4.43
2018-06-29T10:13:29.675Z,4.90
2018-06-29T10:15:58.058Z,5.73
2018-06-29T10:18:27.705Z,5.10
2018-06-29T10:21:01.642Z,5.00
2018-06-29T10:23:30.305Z,5.60
2018-06-29T10:26:00.833Z,4.70
2018-06-29T10:28:34.728Z,5.13
2018-06-29T10:31:03.370Z,4.67
2018-06-29T10:33:35.504Z,4.30
2018-06-29T10:36:04.628Z,4.97
2018-06-29T10:38:44.247Z,5.37
2018-06-29T10:41:20.027Z,4.80
2018-06-29T10:43:49.642Z,4.53
2018-06-29T10:46:18.265Z,4.17
2018-06-29T10:48:55.974Z,5.27
2018-06-29T10:51:24.545Z,3.80
2018-06-29T10:53:54.111Z,3.73
2018-06-29T10:56:24.760Z,3.53
2018-06-29T10:58:53.345Z,3.90
2018-06-29T11:01:21.750Z,3.67
2018-06-29T11:03:50.437Z,4.50
2018-06-29T11:06:18.999Z,3.97
2018-06-29T11:08:47.345Z,4.03
2018-06-29T11:11:16.080Z,3.70
2018-06-29T11:13:45.480Z,4.10
2018-06-29T11:16:13.873Z,3.60
2018-06-29T11:18:42.282Z,3.43
2018-06-29T11:21:10.975Z,3.37
2018-06-29T11:23:39.693Z,3.30
2018-06-29T11:26:21.512Z,3.40
2018-06-29T11:28:49.890Z,3.30
2018-06-29T11:31:24.128Z,3.83
2018-06-29T11:34:02.959Z,3.90
2018-06-29T11:36:36.302Z,3.97
2018-06-29T11:39:09.838Z,3.87
2018-06-29T11:41:52.718Z,3.90
2018-06-29T11:44:24.401Z,3.63
2018-06-29T11:46:58.665Z,3.70
2018-06-29T11:49:43.584Z,3.30
2018-06-29T11:52:26.422Z,3.80
2018-06-29T11:54:58.222Z,3.60
2018-06-29T11:57:32.136Z,4.43
2018-06-29T12:00:01.706Z,3.60
2018-06-29T12:02:30.369Z,3.77
2018-06-29T12:05:15.064Z,3.53
2018-06-29T12:07:49.415Z,4.10
2018-06-29T12:10:18.906Z,3.40
2018-06-29T12:13:06.022Z,3.60
2018-06-29T12:15:36.558Z,3.60
2018-06-29T12:18:06.198Z,3.57
2018-06-29T12:20:37.505Z,4.10
2018-06-29T12:23:06.924Z,3.87
2018-06-29T12:25:47.869Z,3.80
2018-06-29T12:28:16.242Z,3.30
2018-06-29T12:30:44.622Z,3.97
2018-06-29T12:33:18.569Z,4.20
2018-06-29T12:35:59.225Z,3.83
2018-06-29T12:38:41.095Z,3.70
2018-06-29T12:41:09.505Z,3.80
2018-06-29T12:43:39.134Z,3.40
2018-06-29T12:46:22.530Z,3.70
2018-06-29T12:48:57.647Z,4.30
2018-06-29T12:54:24.512Z,5.40
2018-06-29T12:57:00.612Z,4.33
2018-06-29T12:59:48.988Z,4.23
2018-06-29T13:02:40.360Z,4.77
2018-06-29T13:05:14.375Z,3.63
2018-06-29T13:07:44.050Z,4.00
2018-06-29T13:10:13.503Z,4.50
2018-06-29T13:12:47.069Z,4.47
2018-06-29T13:15:28.978Z,4.03
2018-06-29T13:18:07.195Z,4.63
2018-06-29T13:20:35.737Z,4.30
2018-06-29T13:23:04.287Z,4.77
2018-06-29T13:25:33.357Z,3.87
2018-06-29T13:28:03.008Z,3.80
2018-06-29T13:30:32.546Z,4.33
2018-06-29T13:33:01.148Z,4.17
2018-06-29T13:38:30.471Z,4.57
2018-06-29T13:41:00.157Z,4.80
2018-06-29T13:43:30.879Z,4.60
2018-06-29T13:46:02.755Z,4.23
2018-06-29T13:48:32.318Z,4.40
2018-06-29T13:51:13.254Z,4.10
2018-06-29T13:53:42.970Z,5.27
2018-06-29T13:56:11.553Z,4.50
2018-06-29T13:58:45.878Z,4.53
2018-06-29T14:01:15.440Z,4.20
2018-06-29T14:03:54.546Z,3.80
2018-06-29T14:06:28.616Z,3.77
2018-06-29T14:08:58.097Z,4.40
2018-06-29T14:11:29.731Z,4.33
2018-06-29T14:14:10.207Z,3.90
2018-06-29T14:16:38.972Z,4.40
2018-06-29T14:19:09.381Z,3.83
2018-06-29T14:21:55.115Z,4.00
2018-06-29T14:24:23.711Z,4.27
2018-06-29T14:27:15.444Z,4.00
2018-06-29T14:29:47.507Z,4.30
2018-06-29T14:32:17.137Z,3.80
2018-06-29T14:35:06.352Z,3.80
2018-06-29T14:37:36.023Z,3.87
2018-06-29T14:40:05.615Z,4.27
2018-06-29T14:42:56.971Z,3.40
2018-06-29T14:45:28.764Z,3.60
2018-06-29T14:48:07.884Z,3.70
2018-06-29T14:50:44.573Z,3.50
2018-06-29T14:53:15.107Z,3.57
2018-06-29T14:55:54.203Z,3.73
2018-06-29T14:58:42.553Z,3.50
2018-06-29T15:01:10.950Z,3.50
2018-06-29T15:03:57.749Z,3.47
2018-06-29T15:06:30.721Z,3.70
2018-06-29T15:08:59.165Z,3.80
2018-06-29T15:11:33.946Z,3.50
2018-06-29T15:14:05.530Z,3.40
2018-06-29T15:16:37.247Z,3.60
2018-06-29T15:19:05.960Z,3.30
2018-06-29T15:21:48.638Z,3.27
2018-06-29T15:24:39.801Z,3.60
2018-06-29T15:27:13.455Z,3.57
2018-06-29T15:29:48.549Z,3.17
2018-06-29T15:32:19.135Z,3.07
2018-06-29T15:34:51.301Z,3.10
2018-06-29T15:37:23.433Z,3.40
2018-06-29T15:39:59.725Z,3.33
2018-06-29T15:42:30.831Z,3.30
2018-06-29T15:45:00.344Z,3.60
2018-06-29T15:47:30.868Z,3.80
2018-06-29T15:49:59.521Z,3.63
2018-06-29T15:52:31.917Z,3.67
2018-06-29T15:55:01.743Z,3.70
2018-06-29T15:57:33.551Z,4.00
2018-06-29T16:00:09.259Z,3.73
2018-06-29T16:02:44.763Z,3.40
2018-06-29T16:05:13.138Z,4.03
2018-06-29T16:07:46.473Z,4.33
2018-06-29T16:10:15.247Z,3.63
2018-06-29T16:12:43.906Z,4.00
2018-06-29T16:15:22.239Z,3.67
2018-06-29T16:17:55.319Z,4.17
2018-06-29T16:20:23.731Z,4.40
2018-06-29T16:22:53.433Z,4.20
2018-06-29T16:25:25.999Z,4.13
2018-06-29T16:28:08.497Z,4.70
2018-06-29T16:30:39.071Z,3.90
2018-06-29T16:33:07.749Z,3.80
2018-06-29T16:35:36.435Z,3.60
2018-06-29T16:38:10.828Z,3.80
2018-06-29T16:40:42.721Z,3.70
2018-06-29T16:43:13.305Z,3.60
2018-06-29T16:45:42.409Z,3.30
2018-06-29T16:48:10.882Z,3.70
2018-06-29T16:50:39.446Z,3.90
2018-06-29T16:53:08.139Z,3.83
2018-06-29T16:55:37.667Z,4.00
2018-06-29T16:58:07.374Z,4.30
2018-06-29T17:00:43.939Z,4.60
2018-06-29T17:03:18.707Z,4.53
2018-06-29T17:05:47.507Z,5.50
2018-06-29T17:08:21.895Z,5.10
2018-06-29T17:10:58.681Z,5.17
2018-06-29T17:13:29.295Z,4.80
2018-06-29T17:16:01.044Z,4.93
2018-06-29T17:18:49.670Z,5.13
2018-06-29T17:21:22.611Z,5.80
2018-06-29T17:23:55.353Z,5.63
2018-06-29T17:26:24.949Z,4.90
2018-06-29T17:28:54.584Z,5.40
2018-06-29T17:31:35.773Z,5.80
2018-06-29T17:34:06.806Z,6.57
2018-06-29T17:36:54.107Z,6.40
2018-06-29T17:39:25.881Z,5.50
2018-06-29T17:41:54.501Z,5.33
2018-06-29T17:44:33.681Z,5.70
2018-06-29T17:47:04.210Z,6.17
2018-06-29T17:49:33.780Z,6.87
2018-06-29T17:52:09.767Z,6.57
2018-06-29T17:54:45.252Z,7.03
2018-06-29T17:57:15.689Z,6.60
2018-06-29T17:59:47.882Z,6.37
2018-06-29T18:02:26.134Z,7.03
2018-06-29T18:05:01.853Z,6.90
2018-06-29T18:07:46.114Z,7.23
2018-06-29T18:10:21.084Z,6.83
2018-06-29T18:12:51.649Z,7.07
2018-06-29T18:15:20.287Z,7.23
2018-06-29T18:17:49.200Z,7.10
2018-06-29T18:20:17.897Z,6.57
2018-06-29T18:22:51.825Z,6.73
2018-06-29T18:25:20.539Z,6.20
2018-06-29T18:27:56.633Z,6.83
2018-06-29T18:30:26.297Z,7.10
2018-06-29T18:32:57.457Z,6.90
2018-06-29T18:35:28.259Z,6.93
2018-06-29T18:38:04.914Z,7.20
2018-06-29T18:40:37.735Z,6.33
2018-06-29T18:43:07.575Z,6.67
2018-06-29T18:45:50.529Z,6.43
2018-06-29T18:48:19.379Z,6.20
2018-06-29T18:50:55.380Z,5.90
2018-06-29T18:53:24.861Z,5.63
2018-06-29T18:55:59.445Z,5.73
2018-06-29T18:58:31.508Z,4.90
2018-06-29T19:01:02.168Z,4.97
2018-06-29T19:03:31.664Z,5.00
2018-06-29T19:06:02.153Z,4.83
2018-06-29T19:08:31.765Z,5.20
2018-06-29T19:11:00.765Z,5.00
2018-06-29T19:13:30.161Z,5.43
2018-06-29T19:16:09.545Z,5.00
2018-06-29T19:18:40.019Z,4.90
2018-06-29T19:21:13.611Z,4.13
2018-06-29T19:23:45.076Z,4.47
2018-06-29T19:26:13.976Z,4.60
2018-06-29T19:28:47.713Z,4.27
2018-06-29T19:31:19.927Z,4.37
2018-06-29T19:33:48.470Z,4.80
2018-06-29T19:36:18.191Z,5.00
2018-06-29T19:38:47.396Z,5.10
2018-06-29T19:41:17.626Z,4.93
2018-06-29T19:43:47.544Z,4.70
2018-06-29T19:46:18.556Z,5.00
2018-06-29T19:51:40.295Z,4.93
2018-06-29T19:54:10.038Z,4.50
2018-06-29T19:56:41.957Z,4.67
2018-06-29T19:59:21.095Z,5.08
2018-06-29T20:02:06.564Z,5.00
2018-06-29T20:04:45.954Z,5.43
2018-06-29T20:07:28.581Z,5.60
2018-06-29T20:10:05.029Z,5.20
2018-06-29T20:12:40.192Z,5.67
2018-06-29T20:15:10.712Z,5.60
2018-06-29T20:17:45.471Z,5.70
2018-06-29T20:20:15.120Z,5.87
2018-06-29T20:23:01.869Z,6.63
2018-06-29T20:25:31.533Z,6.17
2018-06-29T20:28:10.340Z,5.57
2018-06-29T20:30:40.313Z,7.10
2018-06-29T20:33:08.994Z,5.90
2018-06-29T20:35:38.592Z,6.03
2018-06-29T20:38:07.287Z,6.50
2018-06-29T20:40:37.925Z,6.10
2018-06-29T20:43:10.523Z,6.80
2018-06-29T20:45:42.544Z,6.40
2018-06-29T20:48:16.590Z,6.80
2018-06-29T20:50:51.589Z,6.77
2018-06-29T20:53:20.387Z,7.30
2018-06-29T20:55:51.227Z,6.70
2018-06-29T20:58:24.375Z,7.20
2018-06-29T21:00:53.243Z,7.17
2018-06-29T21:03:24.081Z,7.70
2018-06-29T21:05:52.702Z,7.80
2018-06-29T21:08:27.274Z,7.83
2018-06-29T21:10:55.811Z,7.40
2018-06-29T21:13:32.471Z,8.00
2018-06-29T21:16:04.597Z,7.90
2018-06-29T21:18:43.226Z,8.50
2018-06-29T21:21:22.350Z,8.20
2018-06-29T21:23:53.012Z,8.83
2018-06-29T21:26:38.978Z,8.53
2018-06-29T21:29:08.484Z,8.80
2018-06-29T21:31:39.114Z,9.03
2018-06-29T21:34:08.945Z,8.50
2018-06-29T21:36:39.580Z,8.60
2018-06-29T21:39:10.920Z,9.27
2018-06-29T21:41:49.150Z,9.47
2018-06-29T21:44:19.753Z,9.30
2018-06-29T21:47:05.535Z,9.33
2018-06-29T21:49:35.769Z,9.37
2018-06-29T21:52:07.148Z,9.40
2018-06-29T21:54:35.652Z,9.43
2018-06-29T21:57:11.398Z,9.10
2018-06-29T22:02:33.379Z,9.20
2018-06-29T22:05:04.490Z,9.20
2018-06-29T22:07:40.660Z,9.70
2018-06-29T22:10:11.075Z,9.60
2018-06-29T22:12:39.937Z,9.93
2018-06-29T22:15:21.391Z,9.93
2018-06-29T22:17:52.306Z,10.37
2018-06-29T22:20:25.364Z,9.93
2018-06-29T22:22:54.959Z,9.60
2018-06-29T22:25:23.572Z,9.97
2018-06-29T22:27:54.133Z,10.57
2018-06-29T22:30:22.668Z,10.07
2018-06-29T22:32:57.232Z,10.23
2018-06-29T22:35:43.391Z,10.50
2018-06-29T22:41:16.405Z,10.93
2018-06-29T22:43:57.361Z,9.90
2018-06-29T22:46:35.583Z,10.60
2018-06-29T22:49:04.029Z,10.67
2018-06-29T22:51:55.097Z,10.80
2018-06-29T22:54:25.689Z,10.27
2018-06-29T22:56:57.715Z,10.47
2018-06-29T22:59:28.240Z,10.17
2018-06-29T23:02:00.267Z,10.93
2018-06-29T23:04:30.938Z,11.10
2018-06-29T23:07:00.452Z,11.23
2018-06-29T23:09:30.005Z,10.73
2018-06-29T23:11:58.435Z,10.97
2018-06-29T23:14:28.083Z,12.73
2018-06-29T23:16:56.759Z,11.23
2018-06-29T23:19:25.343Z,11.43
2018-06-29T23:21:55.037Z,13.00
2018-06-29T23:24:24.120Z,11.90
2018-06-29T23:26:56.482Z,11.30
2018-06-29T23:29:26.955Z,11.30
2018-06-29T23:31:57.149Z,10.87
2018-06-29T23:34:27.663Z,11.57
2018-06-29T23:36:56.351Z,12.20
2018-06-29T23:39:25.055Z,11.33
2018-06-29T23:41:54.630Z,11.73
2018-06-29T23:44:22.986Z,11.43
2018-06-29T23:46:51.408Z,11.60
2018-06-29T23:49:29.886Z,12.17
2018-06-29T23:52:00.487Z,11.73
2018-06-29T23:54:29.155Z,11.83
2018-06-29T23:56:58.719Z,12.50
2018-06-29T23:59:28.366Z,12.57
